sensor_id;sensor_type;location;lat;lon;timestamp;pressure;altitude;pressure_sealevel;temperature;humidity
54038;BME280;39954;48.844;9.726;2023-01-29T00:00:49;97059.09;;;-2.87;100.00
54038;BME280;39954;48.844;9.726;2023-01-29T00:01:51;97061.66;;;-2.86;100.00
54038;BME280;39954;48.844;9.726;2023-01-29T00:02:57;97058.22;;;-2.89;100.00
54038;BME280;39954;48.844;9.726;2023-01-29T00:04:03;97052.25;;;-2.92;100.00
54038;BME280;39954;48.844;9.726;2023-01-29T00:05:08;97048.94;;;-2.87;100.00
54038;BME280;39954;48.844;9.726;2023-01-29T00:06:31;97050.66;;;-2.83;100.00
54038;BME280;39954;48.844;9.726;2023-01-29T00:07:36;97054.94;;;-2.82;100.00
54038;BME280;39954;48.844;9.726;2023-01-29T00:08:38;97054.91;;;-2.84;100.00
54038;BME280;39954;48.844;9.726;2023-01-29T00:09:43;97065.03;;;-2.87;100.00
54038;BME280;39954;48.844;9.726;2023-01-29T00:10:48;97065.00;;;-2.90;100.00
54038;BME280;39954;48.844;9.726;2023-01-29T00:11:50;97068.41;;;-2.89;100.00
54038;BME280;39954;48.844;9.726;2023-01-29T00:12:55;97064.16;;;-2.90;100.00
54038;BME280;39954;48.844;9.726;2023-01-29T00:13:58;97069.22;;;-2.94;100.00
54038;BME280;39954;48.844;9.726;2023-01-29T00:15:03;97066.66;;;-2.95;100.00
54038;BME280;39954;48.844;9.726;2023-01-29T00:16:06;97070.06;;;-2.92;100.00
54038;BME280;39954;48.844;9.726;2023-01-29T00:17:11;97070.06;;;-2.93;100.00
54038;BME280;39954;48.844;9.726;2023-01-29T00:18:14;97068.34;;;-2.94;100.00
54038;BME280;39954;48.844;9.726;2023-01-29T00:19:24;97058.16;;;-2.94;100.00
54038;BME280;39954;48.844;9.726;2023-01-29T00:20:29;97064.13;;;-2.94;100.00
54038;BME280;39954;48.844;9.726;2023-01-29T00:21:32;97064.97;;;-2.92;100.00
54038;BME280;39954;48.844;9.726;2023-01-29T00:22:36;97055.66;;;-2.93;100.00
54038;BME280;39954;48.844;9.726;2023-01-29T00:23:39;97051.41;;;-2.92;100.00
54038;BME280;39954;48.844;9.726;2023-01-29T00:24:44;97061.59;;;-2.94;100.00
54038;BME280;39954;48.844;9.726;2023-01-29T00:25:47;97056.50;;;-2.94;100.00
54038;BME280;39954;48.844;9.726;2023-01-29T00:26:52;97065.81;;;-2.93;100.00
54038;BME280;39954;48.844;9.726;2023-01-29T00:27:55;97065.81;;;-2.93;100.00
54038;BME280;39954;48.844;9.726;2023-01-29T00:28:59;97064.19;;;-2.87;100.00
54038;BME280;39954;48.844;9.726;2023-01-29T00:30:03;97062.53;;;-2.85;100.00
54038;BME280;39954;48.844;9.726;2023-01-29T00:31:22;97061.72;;;-2.83;100.00
54038;BME280;39954;48.844;9.726;2023-01-29T00:32:25;97060.81;;;-2.86;100.00
54038;BME280;39954;48.844;9.726;2023-01-29T00:33:30;97061.63;;;-2.89;100.00
54038;BME280;39954;48.844;9.726;2023-01-29T00:34:35;97056.50;;;-2.92;100.00
54038;BME280;39954;48.844;9.726;2023-01-29T00:35:40;97057.41;;;-2.88;100.00
54038;BME280;39954;48.844;9.726;2023-01-29T00:36:43;97060.75;;;-2.93;100.00
54038;BME280;39954;48.844;9.726;2023-01-29T00:37:50;97054.88;;;-2.87;100.00
54038;BME280;39954;48.844;9.726;2023-01-29T00:38:55;97061.63;;;-2.90;100.00
54038;BME280;39954;48.844;9.726;2023-01-29T00:40:04;97060.75;;;-2.93;100.00
54038;BME280;39954;48.844;9.726;2023-01-29T00:41:07;97059.00;;;-2.95;100.00
54038;BME280;39954;48.844;9.726;2023-01-29T00:42:25;97059.88;;;-2.95;100.00
54038;BME280;39954;48.844;9.726;2023-01-29T00:43:42;97057.34;;;-2.93;100.00
54038;BME280;39954;48.844;9.726;2023-01-29T00:44:59;97066.72;;;-2.89;100.00
54038;BME280;39954;48.844;9.726;2023-01-29T00:46:04;97058.22;;;-2.89;100.00
54038;BME280;39954;48.844;9.726;2023-01-29T00:47:07;97063.31;;;-2.89;100.00
54038;BME280;39954;48.844;9.726;2023-01-29T00:48:31;97057.38;;;-2.90;100.00
54038;BME280;39954;48.844;9.726;2023-01-29T00:49:37;97063.28;;;-2.93;100.00
54038;BME280;39954;48.844;9.726;2023-01-29T00:50:42;97064.13;;;-2.94;100.00
54038;BME280;39954;48.844;9.726;2023-01-29T00:51:45;97053.94;;;-2.95;100.00
54038;BME280;39954;48.844;9.726;2023-01-29T00:53:11;97053.03;;;-2.97;100.00
54038;BME280;39954;48.844;9.726;2023-01-29T00:54:13;97048.81;;;-2.98;100.00
54038;BME280;39954;48.844;9.726;2023-01-29T00:55:18;97052.19;;;-2.99;100.00
54038;BME280;39954;48.844;9.726;2023-01-29T00:56:20;97053.94;;;-2.97;100.00
54038;BME280;39954;48.844;9.726;2023-01-29T00:57:29;97055.66;;;-2.93;100.00
54038;BME280;39954;48.844;9.726;2023-01-29T00:58:31;97061.56;;;-2.97;100.00
54038;BME280;39954;48.844;9.726;2023-01-29T00:59:37;97063.25;;;-2.96;100.00
54038;BME280;39954;48.844;9.726;2023-01-29T01:00:40;97058.09;;;-3.00;100.00
54038;BME280;39954;48.844;9.726;2023-01-29T01:01:45;97059.78;;;-3.01;100.00
54038;BME280;39954;48.844;9.726;2023-01-29T01:03:03;97057.22;;;-3.04;100.00
54038;BME280;39954;48.844;9.726;2023-01-29T01:04:10;97057.22;;;-3.04;100.00
54038;BME280;39954;48.844;9.726;2023-01-29T01:05:16;97057.22;;;-3.04;100.00
54038;BME280;39954;48.844;9.726;2023-01-29T01:06:24;97054.66;;;-3.05;100.00
54038;BME280;39954;48.844;9.726;2023-01-29T01:07:26;97048.72;;;-3.06;100.00
54038;BME280;39954;48.844;9.726;2023-01-29T01:08:31;97050.41;;;-3.08;100.00
54038;BME280;39954;48.844;9.726;2023-01-29T01:09:49;97049.59;;;-3.04;100.00
54038;BME280;39954;48.844;9.726;2023-01-29T01:11:06;97048.75;;;-3.03;100.00
54038;BME280;39954;48.844;9.726;2023-01-29T01:12:11;97048.72;;;-3.06;100.00
54038;BME280;39954;48.844;9.726;2023-01-29T01:13:13;97047.88;;;-3.08;100.00
54038;BME280;39954;48.844;9.726;2023-01-29T01:14:19;97049.53;;;-3.08;100.00
54038;BME280;39954;48.844;9.726;2023-01-29T01:15:23;97043.66;;;-3.03;100.00
54038;BME280;39954;48.844;9.726;2023-01-29T01:16:30;97042.81;;;-3.03;100.00
54038;BME280;39954;48.844;9.726;2023-01-29T01:17:32;97043.69;;;-3.01;100.00
54038;BME280;39954;48.844;9.726;2023-01-29T01:18:38;97045.38;;;-3.02;100.00
54038;BME280;39954;48.844;9.726;2023-01-29T01:19:45;97038.53;;;-3.06;100.00
54038;BME280;39954;48.844;9.726;2023-01-29T01:20:56;97041.09;;;-3.06;100.00
54038;BME280;39954;48.844;9.726;2023-01-29T01:22:01;97045.34;;;-3.05;100.00
54038;BME280;39954;48.844;9.726;2023-01-29T01:23:03;97047.03;;;-3.04;100.00
54038;BME280;39954;48.844;9.726;2023-01-29T01:24:08;97046.19;;;-3.04;100.00
54038;BME280;39954;48.844;9.726;2023-01-29T01:25:10;97042.00;;;-3.02;100.00
54038;BME280;39954;48.844;9.726;2023-01-29T01:26:16;97041.97;;;-3.04;100.00
54038;BME280;39954;48.844;9.726;2023-01-29T01:27:18;97036.88;;;-3.04;100.00
54038;BME280;39954;48.844;9.726;2023-01-29T01:28:24;97036.91;;;-3.01;100.00
54038;BME280;39954;48.844;9.726;2023-01-29T01:29:26;97034.47;;;-2.93;100.00
54038;BME280;39954;48.844;9.726;2023-01-29T01:30:32;97042.06;;;-2.95;100.00
54038;BME280;39954;48.844;9.726;2023-01-29T01:31:34;97038.66;;;-2.95;100.00
54038;BME280;39954;48.844;9.726;2023-01-29T01:32:40;97043.75;;;-2.97;100.00
54038;BME280;39954;48.844;9.726;2023-01-29T01:33:43;97042.84;;;-3.00;100.00
54038;BME280;39954;48.844;9.726;2023-01-29T01:34:48;97038.59;;;-3.01;100.00
54038;BME280;39954;48.844;9.726;2023-01-29T01:35:53;97042.84;;;-3.00;100.00
54038;BME280;39954;48.844;9.726;2023-01-29T01:36:58;97047.94;;;-3.02;100.00
54038;BME280;39954;48.844;9.726;2023-01-29T01:38:01;97046.22;;;-3.01;100.00
54038;BME280;39954;48.844;9.726;2023-01-29T01:39:06;97042.84;;;-3.02;100.00
54038;BME280;39954;48.844;9.726;2023-01-29T01:40:13;97044.56;;;-2.99;100.00
54038;BME280;39954;48.844;9.726;2023-01-29T01:41:21;97044.59;;;-2.95;100.00
54038;BME280;39954;48.844;9.726;2023-01-29T01:42:27;97042.88;;;-2.97;100.00
54038;BME280;39954;48.844;9.726;2023-01-29T01:43:47;97043.75;;;-2.97;100.00
54038;BME280;39954;48.844;9.726;2023-01-29T01:45:00;97037.81;;;-2.94;100.00
54038;BME280;39954;48.844;9.726;2023-01-29T01:46:07;97042.03;;;-2.98;100.00
54038;BME280;39954;48.844;9.726;2023-01-29T01:47:10;97041.22;;;-2.97;100.00
54038;BME280;39954;48.844;9.726;2023-01-29T01:48:20;97043.69;;;-3.00;100.00
54038;BME280;39954;48.844;9.726;2023-01-29T01:49:26;97039.47;;;-2.99;100.00
54038;BME280;39954;48.844;9.726;2023-01-29T01:50:33;97040.31;;;-2.99;100.00
54038;BME280;39954;48.844;9.726;2023-01-29T01:51:43;97044.53;;;-3.01;100.00
54038;BME280;39954;48.844;9.726;2023-01-29T01:52:50;97036.88;;;-3.04;100.00
54038;BME280;39954;48.844;9.726;2023-01-29T01:53:59;97036.84;;;-3.07;100.00
54038;BME280;39954;48.844;9.726;2023-01-29T01:55:05;97034.28;;;-3.07;100.00
54038;BME280;39954;48.844;9.726;2023-01-29T01:56:15;97034.25;;;-3.08;100.00
54038;BME280;39954;48.844;9.726;2023-01-29T01:57:22;97035.13;;;-3.09;100.00
54038;BME280;39954;48.844;9.726;2023-01-29T01:58:32;97038.50;;;-3.09;100.00
54038;BME280;39954;48.844;9.726;2023-01-29T01:59:36;97033.41;;;-3.09;100.00
54038;BME280;39954;48.844;9.726;2023-01-29T02:00:42;97041.03;;;-3.10;100.00
54038;BME280;39954;48.844;9.726;2023-01-29T02:01:46;97040.16;;;-3.11;100.00
54038;BME280;39954;48.844;9.726;2023-01-29T02:02:53;97050.34;;;-3.11;100.00
54038;BME280;39954;48.844;9.726;2023-01-29T02:04:15;97040.25;;;-3.03;100.00
54038;BME280;39954;48.844;9.726;2023-01-29T02:05:34;97036.84;;;-3.07;100.00
54038;BME280;39954;48.844;9.726;2023-01-29T02:06:57;97039.31;;;-3.11;100.00
54038;BME280;39954;48.844;9.726;2023-01-29T02:08:22;97036.81;;;-3.10;100.00
54038;BME280;39954;48.844;9.726;2023-01-29T02:09:46;97034.25;;;-3.10;100.00
54038;BME280;39954;48.844;9.726;2023-01-29T02:10:55;97037.63;;;-3.11;100.00
54038;BME280;39954;48.844;9.726;2023-01-29T02:12:00;97040.16;;;-3.11;100.00
54038;BME280;39954;48.844;9.726;2023-01-29T02:13:05;97043.56;;;-3.12;100.00
54038;BME280;39954;48.844;9.726;2023-01-29T02:14:08;97039.31;;;-3.11;100.00
54038;BME280;39954;48.844;9.726;2023-01-29T02:15:16;97044.41;;;-3.13;100.00
54038;BME280;39954;48.844;9.726;2023-01-29T02:16:19;97041.91;;;-3.10;100.00
54038;BME280;39954;48.844;9.726;2023-01-29T02:17:25;97050.41;;;-3.08;100.00
54038;BME280;39954;48.844;9.726;2023-01-29T02:18:27;97050.41;;;-3.08;100.00
54038;BME280;39954;48.844;9.726;2023-01-29T02:19:46;97053.78;;;-3.06;100.00
54038;BME280;39954;48.844;9.726;2023-01-29T02:21:06;97053.78;;;-3.07;100.00
54038;BME280;39954;48.844;9.726;2023-01-29T02:22:46;97047.81;;;-3.09;100.00
54038;BME280;39954;48.844;9.726;2023-01-29T02:25:49;97041.94;;;-3.05;100.00
54038;BME280;39954;48.844;9.726;2023-01-29T02:27:06;97041.94;;;-3.07;100.00
54038;BME280;39954;48.844;9.726;2023-01-29T02:28:28;97042.72;;;-3.12;100.00
54038;BME280;39954;48.844;9.726;2023-01-29T02:29:47;97044.38;;;-3.15;100.00
54038;BME280;39954;48.844;9.726;2023-01-29T02:31:03;97048.56;;;-3.18;100.00
54038;BME280;39954;48.844;9.726;2023-01-29T02:32:14;97054.50;;;-3.18;100.00
54038;BME280;39954;48.844;9.726;2023-01-29T02:33:27;97046.91;;;-3.16;100.00
54038;BME280;39954;48.844;9.726;2023-01-29T02:34:38;97050.28;;;-3.17;100.00
54038;BME280;39954;48.844;9.726;2023-01-29T02:36:03;97046.91;;;-3.16;100.00
54038;BME280;39954;48.844;9.726;2023-01-29T02:37:14;97046.13;;;-3.09;100.00
54038;BME280;39954;48.844;9.726;2023-01-29T02:38:22;97046.97;;;-3.10;100.00
54038;BME280;39954;48.844;9.726;2023-01-29T02:39:33;97046.94;;;-3.11;100.00
54038;BME280;39954;48.844;9.726;2023-01-29T02:40:41;97046.13;;;-3.10;100.00
54038;BME280;39954;48.844;9.726;2023-01-29T02:41:55;97052.06;;;-3.08;100.00
54038;BME280;39954;48.844;9.726;2023-01-29T02:43:07;97052.03;;;-3.13;100.00
54038;BME280;39954;48.844;9.726;2023-01-29T02:44:25;97051.13;;;-3.18;100.00
54038;BME280;39954;48.844;9.726;2023-01-29T02:45:36;97060.41;;;-3.20;100.00
54038;BME280;39954;48.844;9.726;2023-01-29T02:46:51;97048.53;;;-3.20;100.00
54038;BME280;39954;48.844;9.726;2023-01-29T02:47:58;97045.22;;;-3.14;100.00
54038;BME280;39954;48.844;9.726;2023-01-29T02:49:10;97045.22;;;-3.16;100.00
54038;BME280;39954;48.844;9.726;2023-01-29T02:50:20;97042.66;;;-3.19;100.00
54038;BME280;39954;48.844;9.726;2023-01-29T02:51:34;97048.53;;;-3.21;100.00
54038;BME280;39954;48.844;9.726;2023-01-29T02:52:42;97046.84;;;-3.21;100.00
54038;BME280;39954;48.844;9.726;2023-01-29T02:53:58;97045.16;;;-3.20;100.00
54038;BME280;39954;48.844;9.726;2023-01-29T02:55:09;97046.00;;;-3.20;100.00
54038;BME280;39954;48.844;9.726;2023-01-29T02:56:15;97051.13;;;-3.17;100.00
54038;BME280;39954;48.844;9.726;2023-01-29T02:57:23;97052.81;;;-3.17;100.00
54038;BME280;39954;48.844;9.726;2023-01-29T02:58:33;97048.56;;;-3.17;100.00
54038;BME280;39954;48.844;9.726;2023-01-29T02:59:48;97046.09;;;-3.12;100.00
54038;BME280;39954;48.844;9.726;2023-01-29T03:00:52;97044.38;;;-3.16;100.00
54038;BME280;39954;48.844;9.726;2023-01-29T03:02:03;97045.22;;;-3.16;100.00
54038;BME280;39954;48.844;9.726;2023-01-29T03:03:13;97046.09;;;-3.13;100.00
54038;BME280;39954;48.844;9.726;2023-01-29T03:04:24;97036.75;;;-3.16;100.00
54038;BME280;39954;48.844;9.726;2023-01-29T03:05:30;97034.13;;;-3.21;100.00
54038;BME280;39954;48.844;9.726;2023-01-29T03:06:40;97037.50;;;-3.23;100.00
54038;BME280;39954;48.844;9.726;2023-01-29T03:07:48;97034.94;;;-3.25;100.00
54038;BME280;39954;48.844;9.726;2023-01-29T03:08:56;97041.72;;;-3.22;100.00
54038;BME280;39954;48.844;9.726;2023-01-29T03:10:04;97034.06;;;-3.25;100.00
54038;BME280;39954;48.844;9.726;2023-01-29T03:11:09;97040.84;;;-3.26;100.00
54038;BME280;39954;48.844;9.726;2023-01-29T03:12:21;97037.44;;;-3.26;100.00
54038;BME280;39954;48.844;9.726;2023-01-29T03:13:39;97039.13;;;-3.28;100.00
54038;BME280;39954;48.844;9.726;2023-01-29T03:14:50;97036.56;;;-3.28;100.00
54038;BME280;39954;48.844;9.726;2023-01-29T03:16:14;97039.13;;;-3.28;100.00
54038;BME280;39954;48.844;9.726;2023-01-29T03:17:24;97036.56;;;-3.28;100.00
54038;BME280;39954;48.844;9.726;2023-01-29T03:18:32;97028.97;;;-3.27;100.00
54038;BME280;39954;48.844;9.726;2023-01-29T03:19:44;97026.41;;;-3.28;100.00
54038;BME280;39954;48.844;9.726;2023-01-29T03:20:50;97022.16;;;-3.29;100.00
54038;BME280;39954;48.844;9.726;2023-01-29T03:22:01;97026.41;;;-3.28;100.00
54038;BME280;39954;48.844;9.726;2023-01-29T03:23:10;97027.34;;;-3.22;100.00
54038;BME280;39954;48.844;9.726;2023-01-29T03:24:33;97033.28;;;-3.21;100.00
54038;BME280;39954;48.844;9.726;2023-01-29T03:25:52;97029.09;;;-3.19;100.00
54038;BME280;39954;48.844;9.726;2023-01-29T03:27:12;97033.28;;;-3.21;100.00
54038;BME280;39954;48.844;9.726;2023-01-29T03:28:32;97026.44;;;-3.25;100.00
54038;BME280;39954;48.844;9.726;2023-01-29T03:29:53;97037.44;;;-3.26;100.00
54038;BME280;39954;48.844;9.726;2023-01-29T03:31:13;97033.22;;;-3.27;100.00
54038;BME280;39954;48.844;9.726;2023-01-29T03:32:31;97037.41;;;-3.28;100.00
54038;BME280;39954;48.844;9.726;2023-01-29T03:33:41;97035.69;;;-3.32;100.00
54038;BME280;39954;48.844;9.726;2023-01-29T03:34:48;97039.97;;;-3.29;100.00
54038;BME280;39954;48.844;9.726;2023-01-29T03:36:05;97034.88;;;-3.29;100.00
54038;BME280;39954;48.844;9.726;2023-01-29T03:37:13;97034.88;;;-3.29;100.00
54038;BME280;39954;48.844;9.726;2023-01-29T03:38:20;97036.56;;;-3.30;100.00
54038;BME280;39954;48.844;9.726;2023-01-29T03:39:24;97032.31;;;-3.31;100.00
54038;BME280;39954;48.844;9.726;2023-01-29T03:40:35;97033.19;;;-3.30;100.00
54038;BME280;39954;48.844;9.726;2023-01-29T03:41:41;97029.78;;;-3.29;100.00
54038;BME280;39954;48.844;9.726;2023-01-29T03:42:57;97037.41;;;-3.28;100.00
54038;BME280;39954;48.844;9.726;2023-01-29T03:44:06;97035.72;;;-3.30;100.00
54038;BME280;39954;48.844;9.726;2023-01-29T03:45:21;97033.97;;;-3.34;100.00
54038;BME280;39954;48.844;9.726;2023-01-29T03:46:30;97038.19;;;-3.33;100.00
54038;BME280;39954;48.844;9.726;2023-01-29T03:47:42;97039.03;;;-3.34;100.00
54038;BME280;39954;48.844;9.726;2023-01-29T03:48:52;97038.19;;;-3.33;100.00
54038;BME280;39954;48.844;9.726;2023-01-29T03:50:06;97032.31;;;-3.31;100.00
54038;BME280;39954;48.844;9.726;2023-01-29T03:51:16;97038.31;;;-3.27;100.00
54038;BME280;39954;48.844;9.726;2023-01-29T03:52:30;97042.59;;;-3.22;100.00
54038;BME280;39954;48.844;9.726;2023-01-29T03:53:41;97043.47;;;-3.21;100.00
54038;BME280;39954;48.844;9.726;2023-01-29T03:54:53;97041.72;;;-3.22;100.00
54038;BME280;39954;48.844;9.726;2023-01-29T03:56:00;97034.09;;;-3.24;100.00
54038;BME280;39954;48.844;9.726;2023-01-29T03:57:12;97041.72;;;-3.22;100.00
54038;BME280;39954;48.844;9.726;2023-01-29T03:58:23;97046.81;;;-3.22;100.00
54038;BME280;39954;48.844;9.726;2023-01-29T03:59:36;97043.47;;;-3.21;100.00
54038;BME280;39954;48.844;9.726;2023-01-29T04:00:56;97034.94;;;-3.23;100.00
54038;BME280;39954;48.844;9.726;2023-01-29T04:02:04;97053.59;;;-3.24;100.00
54038;BME280;39954;48.844;9.726;2023-01-29T04:03:12;97041.69;;;-3.25;100.00
54038;BME280;39954;48.844;9.726;2023-01-29T04:04:23;97051.88;;;-3.25;100.00
54038;BME280;39954;48.844;9.726;2023-01-29T04:05:30;97046.81;;;-3.22;100.00
54038;BME280;39954;48.844;9.726;2023-01-29T04:06:38;97048.47;;;-3.26;100.00
54038;BME280;39954;48.844;9.726;2023-01-29T04:07:43;97054.41;;;-3.25;100.00
54038;BME280;39954;48.844;9.726;2023-01-29T04:08:58;97042.56;;;-3.23;100.00
54038;BME280;39954;48.844;9.726;2023-01-29T04:10:06;97045.13;;;-3.23;100.00
54038;BME280;39954;48.844;9.726;2023-01-29T04:11:17;97043.41;;;-3.24;100.00
54038;BME280;39954;48.844;9.726;2023-01-29T04:12:25;97042.56;;;-3.23;100.00
54038;BME280;39954;48.844;9.726;2023-01-29T04:13:35;97045.13;;;-3.23;100.00
54038;BME280;39954;48.844;9.726;2023-01-29T04:14:38;97046.81;;;-3.24;100.00
54038;BME280;39954;48.844;9.726;2023-01-29T04:15:46;97047.63;;;-3.26;100.00
54038;BME280;39954;48.844;9.726;2023-01-29T04:16:56;97046.75;;;-3.28;100.00
54038;BME280;39954;48.844;9.726;2023-01-29T04:18:04;97047.59;;;-3.29;100.00
54038;BME280;39954;48.844;9.726;2023-01-29T04:19:07;97046.75;;;-3.28;100.00
54038;BME280;39954;48.844;9.726;2023-01-29T04:20:12;97042.50;;;-3.29;100.00
54038;BME280;39954;48.844;9.726;2023-01-29T04:21:15;97050.13;;;-3.29;100.00
54038;BME280;39954;48.844;9.726;2023-01-29T04:22:23;97058.63;;;-3.27;100.00
54038;BME280;39954;48.844;9.726;2023-01-29T04:23:28;97053.56;;;-3.27;100.00
54038;BME280;39954;48.844;9.726;2023-01-29T04:24:34;97057.81;;;-3.25;100.00
54038;BME280;39954;48.844;9.726;2023-01-29T04:25:44;97049.41;;;-3.19;100.00
54038;BME280;39954;48.844;9.726;2023-01-29T04:26:59;97050.25;;;-3.20;100.00
54038;BME280;39954;48.844;9.726;2023-01-29T04:28:04;97054.44;;;-3.22;100.00
54038;BME280;39954;48.844;9.726;2023-01-29T04:29:20;97051.09;;;-3.20;100.00
54038;BME280;39954;48.844;9.726;2023-01-29T04:30:37;97054.41;;;-3.25;100.00
54038;BME280;39954;48.844;9.726;2023-01-29T04:31:49;97058.69;;;-3.24;100.00
54038;BME280;39954;48.844;9.726;2023-01-29T04:33:03;97060.31;;;-3.29;100.00
54038;BME280;39954;48.844;9.726;2023-01-29T04:34:17;97058.69;;;-3.24;100.00
54038;BME280;39954;48.844;9.726;2023-01-29T04:35:30;97059.47;;;-3.28;100.00
54038;BME280;39954;48.844;9.726;2023-01-29T04:36:42;97055.19;;;-3.32;100.00
54038;BME280;39954;48.844;9.726;2023-01-29T04:38:00;97055.09;;;-3.39;100.00
54038;BME280;39954;48.844;9.726;2023-01-29T04:39:11;97056.00;;;-3.35;100.00
54038;BME280;39954;48.844;9.726;2023-01-29T04:40:22;97053.41;;;-3.37;100.00
54038;BME280;39954;48.844;9.726;2023-01-29T04:41:30;97060.19;;;-3.39;100.00
54038;BME280;39954;48.844;9.726;2023-01-29T04:42:43;97055.91;;;-3.41;100.00
54038;BME280;39954;48.844;9.726;2023-01-29T04:43:57;97051.66;;;-3.44;100.00
54038;BME280;39954;48.844;9.726;2023-01-29T04:45:06;97043.97;;;-3.45;100.00
54038;BME280;39954;48.844;9.726;2023-01-29T04:46:16;97050.75;;;-3.46;100.00
54038;BME280;39954;48.844;9.726;2023-01-29T04:47:28;97053.31;;;-3.46;100.00
54038;BME280;39954;48.844;9.726;2023-01-29T04:48:45;97047.47;;;-3.39;100.00
54038;BME280;39954;48.844;9.726;2023-01-29T04:50:00;97042.34;;;-3.42;100.00
54038;BME280;39954;48.844;9.726;2023-01-29T04:51:09;97039.84;;;-3.39;100.00
54038;BME280;39954;48.844;9.726;2023-01-29T04:52:22;97042.44;;;-3.34;100.00
54038;BME280;39954;48.844;9.726;2023-01-29T04:53:27;97039.84;;;-3.39;100.00
54038;BME280;39954;48.844;9.726;2023-01-29T04:54:53;97044.03;;;-3.42;100.00
54038;BME280;39954;48.844;9.726;2023-01-29T04:56:03;97041.44;;;-3.47;100.00
54038;BME280;39954;48.844;9.726;2023-01-29T04:57:16;97038.88;;;-3.50;100.00
54038;BME280;39954;48.844;9.726;2023-01-29T04:58:25;97043.94;;;-3.48;100.00
54038;BME280;39954;48.844;9.726;2023-01-29T04:59:35;97032.09;;;-3.49;100.00
54038;BME280;39954;48.844;9.726;2023-01-29T05:00:40;97042.31;;;-3.43;100.00
54038;BME280;39954;48.844;9.726;2023-01-29T05:01:47;97038.09;;;-3.44;100.00
54038;BME280;39954;48.844;9.726;2023-01-29T05:02:50;97039.75;;;-3.45;100.00
54038;BME280;39954;48.844;9.726;2023-01-29T05:03:59;97045.72;;;-3.44;100.00
54038;BME280;39954;48.844;9.726;2023-01-29T05:05:04;97038.94;;;-3.44;100.00
54038;BME280;39954;48.844;9.726;2023-01-29T05:06:09;97044.91;;;-3.42;100.00
54038;BME280;39954;48.844;9.726;2023-01-29T05:07:13;97047.47;;;-3.39;100.00
54038;BME280;39954;48.844;9.726;2023-01-29T05:08:21;97046.66;;;-3.36;100.00
54038;BME280;39954;48.844;9.726;2023-01-29T05:09:25;97048.34;;;-3.37;100.00
54038;BME280;39954;48.844;9.726;2023-01-29T05:10:30;97044.97;;;-3.35;100.00
54038;BME280;39954;48.844;9.726;2023-01-29T05:11:34;97045.78;;;-3.37;100.00
54038;BME280;39954;48.844;9.726;2023-01-29T05:12:42;97044.97;;;-3.35;100.00
54038;BME280;39954;48.844;9.726;2023-01-29T05:13:47;97048.38;;;-3.33;100.00
54038;BME280;39954;48.844;9.726;2023-01-29T05:14:55;97053.53;;;-3.30;100.00
54038;BME280;39954;48.844;9.726;2023-01-29T05:16:04;97055.25;;;-3.26;100.00
54038;BME280;39954;48.844;9.726;2023-01-29T05:17:15;97050.16;;;-3.26;100.00
54038;BME280;39954;48.844;9.726;2023-01-29T05:18:19;97056.97;;;-3.22;100.00
54038;BME280;39954;48.844;9.726;2023-01-29T05:19:26;97062.13;;;-3.19;100.00
54038;BME280;39954;48.844;9.726;2023-01-29T05:20:31;97051.97;;;-3.19;100.00
54038;BME280;39954;48.844;9.726;2023-01-29T05:21:38;97060.41;;;-3.20;100.00
54038;BME280;39954;48.844;9.726;2023-01-29T05:22:42;97056.13;;;-3.24;100.00
54038;BME280;39954;48.844;9.726;2023-01-29T05:24:10;97055.28;;;-3.25;100.00
54038;BME280;39954;48.844;9.726;2023-01-29T05:25:22;97045.13;;;-3.23;100.00
54038;BME280;39954;48.844;9.726;2023-01-29T05:26:24;97043.50;;;-3.18;100.00
54038;BME280;39954;48.844;9.726;2023-01-29T05:27:43;97038.38;;;-3.20;100.00
54038;BME280;39954;48.844;9.726;2023-01-29T05:29:00;97045.16;;;-3.20;100.00
54038;BME280;39954;48.844;9.726;2023-01-29T05:30:07;97045.16;;;-3.22;100.00
54038;BME280;39954;48.844;9.726;2023-01-29T05:31:10;97042.56;;;-3.23;100.00
54038;BME280;39954;48.844;9.726;2023-01-29T05:32:16;97050.19;;;-3.23;100.00
54038;BME280;39954;48.844;9.726;2023-01-29T05:33:20;97056.16;;;-3.21;100.00
54038;BME280;39954;48.844;9.726;2023-01-29T05:34:30;97044.34;;;-3.19;100.00
54038;BME280;39954;48.844;9.726;2023-01-29T05:35:33;97042.66;;;-3.17;100.00
54038;BME280;39954;48.844;9.726;2023-01-29T05:36:38;97045.19;;;-3.17;100.00
54038;BME280;39954;48.844;9.726;2023-01-29T05:37:40;97057.00;;;-3.21;100.00
54038;BME280;39954;48.844;9.726;2023-01-29T05:38:46;97045.16;;;-3.22;100.00
54038;BME280;39954;48.844;9.726;2023-01-29T05:39:52;97047.69;;;-3.22;100.00
54038;BME280;39954;48.844;9.726;2023-01-29T05:40:57;97052.78;;;-3.20;100.00
54038;BME280;39954;48.844;9.726;2023-01-29T05:42:03;97048.53;;;-3.21;100.00
54038;BME280;39954;48.844;9.726;2023-01-29T05:43:12;97043.47;;;-3.21;100.00
54038;BME280;39954;48.844;9.726;2023-01-29T05:44:18;97044.28;;;-3.24;100.00
54038;BME280;39954;48.844;9.726;2023-01-29T05:45:21;97047.69;;;-3.22;100.00
54038;BME280;39954;48.844;9.726;2023-01-29T05:46:27;97046.03;;;-3.18;100.00
54038;BME280;39954;48.844;9.726;2023-01-29T05:47:29;97040.06;;;-3.22;100.00
54038;BME280;39954;48.844;9.726;2023-01-29T05:48:34;97036.72;;;-3.19;100.00
54038;BME280;39954;48.844;9.726;2023-01-29T05:49:42;97034.16;;;-3.19;100.00
54038;BME280;39954;48.844;9.726;2023-01-29T05:50:45;97037.56;;;-3.17;100.00
54038;BME280;39954;48.844;9.726;2023-01-29T05:51:50;97028.25;;;-3.15;100.00
54038;BME280;39954;48.844;9.726;2023-01-29T05:52:55;97035.00;;;-3.19;100.00
54038;BME280;39954;48.844;9.726;2023-01-29T05:54:00;97034.97;;;-3.20;100.00
54038;BME280;39954;48.844;9.726;2023-01-29T05:55:04;97028.19;;;-3.21;100.00
54038;BME280;39954;48.844;9.726;2023-01-29T05:56:09;97032.44;;;-3.22;100.00
54038;BME280;39954;48.844;9.726;2023-01-29T05:57:13;97023.09;;;-3.24;100.00
54038;BME280;39954;48.844;9.726;2023-01-29T05:58:18;97018.81;;;-3.27;100.00
54038;BME280;39954;48.844;9.726;2023-01-29T05:59:20;97014.53;;;-3.29;100.00
54038;BME280;39954;48.844;9.726;2023-01-29T06:00:25;97012.84;;;-3.30;100.00
54038;BME280;39954;48.844;9.726;2023-01-29T06:01:28;97001.78;;;-3.32;100.00
54038;BME280;39954;48.844;9.726;2023-01-29T06:02:33;97003.50;;;-3.33;100.00